WALL/BPN METAR and TAF weather

Enter ICAO airport designator
Station Type Date Time Source
WALL METAR 2022/01/29 09:30 UTC NOAA

WALL 290930Z 08003KT 050V200 9999 FEW020 29/25 Q1007 NOSIG


Station Type Date Time Source
WALL Decoded METAR 2022/01/29 09:30 UTC NOAA

Station name not available
Jan 29, 2022 - 04:30 AM EST / 2022.01.29 0930 UTC
Wind: from the E (080 degrees) at 3 MPH (3 KT) (direction variable):0
Visibility: greater than 7 mile(s):0
Sky conditions: mostly clear
Temperature: 84 F (29 C)
Dew Point: 77 F (25 C)
Relative Humidity: 79%
Pressure (altimeter): 29.74 in. Hg (1007 hPa)
ob: WALL 290930Z 08003KT 050V200 9999 FEW020 29/25 Q1007 NOSIG
cycle: 9

Station Type Date Time Source
WALL TAF 2022/01/29 06:00 UTC NOAA

TAF WALL 290500Z 2906/3012 19004KT 9999 FEW020 PROB30
TEMPO 2912/2915 8000 -RA FEW017CB SCT018
BECMG 2915/2917 36003KT

Example: see airport list